METAR Data
IDs: Format: Raw Decoded Include TAF

Data at: 2004 UTC 18 Apr 2021

KLAL 181950Z 24010G16KT 10SM SCT040 BKN075 29/20 A2986
KLAL 181850Z 24008G17KT 10SM SCT043 BKN070 30/19 A2989
KLAL 181750Z 22011G18KT 10SM BKN040 29/20 A2990
KLAL 181650Z 23008KT 10SM BKN040 29/20 A2991
KLAL 181550Z 22008KT 10SM SCT025 BKN040 28/21 A2995
KLAL 181450Z 23013G16KT 10SM SCT020 BKN035 27/21 A2995
KLAL 181350Z 22010KT 10SM SCT008 25/22 A2994
KLAL 181323Z 21010KT 10SM SCT008 24/22 A2994
KLAL 181250Z 21007KT 7SM OVC004 23/22 A2994
KLAL 181150Z 21006KT 7SM OVC003 22/22 A2994
KLAL 181050Z 22006KT 3SM BR OVC003 22/22 A2993
KLAL 180950Z 21005KT 1/2SM FG OVC003 22/22 A2991
KLAL 180935Z AUTO 20005KT 3SM BR OVC003 22/21 A2991 RMK AO2 PNO
KLAL 180915Z AUTO 20003KT 5SM BR OVC003 22/21 A2991 RMK AO2 PNO
KLAL 180855Z AUTO 00000KT 4SM BR OVC003 22/21 A2991 RMK AO2 PNO
KLAL 180835Z AUTO 00000KT 4SM BR OVC003 22/21 A2991 RMK AO2 PNO
KLAL 180815Z AUTO 00000KT 4SM BR OVC003 21/21 A2991 RMK AO2 PNO
KLAL 180755Z AUTO 18003KT 5SM BR BKN005 OVC010 21/21 A2991 RMK AO2 PNO
KLAL 180735Z AUTO 21004KT 5SM BR BKN005 BKN012 BKN019 21/21 A2991 RMK AO2 PNO
KLAL 180715Z AUTO 20003KT 5SM BR SCT005 SCT013 SCT030 21/21 A2991 RMK AO2 PNO
KLAL 180655Z AUTO 21005KT 7SM SCT060 21/21 A2992 RMK AO2 PNO
KLAL 180635Z AUTO 22003KT 7SM BKN009 BKN033 BKN055 21/20 A2992 RMK AO2 PNO
KLAL 180615Z AUTO 22003KT 7SM SCT008 BKN014 BKN025 21/20 A2993 RMK AO2 PNO
KLAL 180555Z AUTO 21003KT 7SM SCT014 SCT050 21/20 A2992 RMK AO2 PNO
KLAL 180535Z AUTO 20003KT 7SM CLR 22/20 A2993 RMK AO2 PNO
KLAL 180515Z AUTO 20004KT 7SM CLR 22/21 A2993 RMK AO2 PNO
KLAL 180455Z AUTO 20004KT 7SM CLR 22/20 A2993 RMK AO2 PNO
KLAL 180435Z AUTO 21003KT 10SM CLR 22/20 A2993 RMK AO2 PNO
KLAL 180415Z AUTO 20003KT 10SM SCT021 SCT026 22/20 A2993 RMK AO2 PNO
KLAL 180355Z AUTO 00000KT 10SM SCT021 BKN026 22/20 A2993 RMK AO2 PNO
KLAL 180335Z AUTO 00000KT 10SM SCT021 BKN028 22/20 A2993 RMK AO2 PNO
KLAL 180315Z AUTO 00000KT 10SM SCT021 22/20 A2992 RMK AO2 PNO
KLAL 180255Z AUTO 00000KT 7SM CLR 22/20 A2991 RMK AO2 PNO
KLAL 180235Z AUTO 00000KT 10SM CLR 22/20 A2991 RMK AO2 PNO
KLAL 180215Z AUTO 24003KT 10SM CLR 23/20 A2990 RMK AO2 LTG DSNT N PNO
KLAL 180150Z 25006KT 10SM SKC 24/21 A2990
KLAL 180050Z 25005KT 10SM SKC 25/21 A2989
KLAL 172350Z 25006KT 10SM SKC 26/20 A2988
KLAL 172246Z 26007KT 10SM SKC 29/19 A2986
KLAL 172146Z 24011G17KT 10SM SCT034 29/19 A2986
KLAL 172046Z 24011G17KT 10SM FEW039 29/19 A2984
KLAL 171950Z 25008G16KT 10SM SCT039 29/19 A2985
KLAL 171850Z 25008G16KT 10SM SCT039 28/19 A2987
KLAL 171750Z 24008G14KT 10SM SCT031 SCT037 28/19 A2990
KLAL 171650Z 24008KT 10SM BKN027 BKN041 27/20 A2991
KLAL 171546Z 26005KT 10SM OVC016 26/21 A2993
KLAL 171455Z 24006KT 10SM BKN010 24/21 A2993
KLAL 171350Z 21006KT 6SM BR BKN009 OVC110 23/21 A2990 RMK LTG DSNT N
KLAL 171250Z 23005KT 4SM BR BKN005 OVC009 22/21 A2991 RMK LTG DSNT N
KLAL 171150Z 22003KT 2SM BR BKN005 OVC012 22/21 A2989
KLAL 171050Z 22006KT 2SM BR OVC003 21/21 A2986
KLAL 170955Z 21006KT 2SM BR OVC003 21/21 A2985
KLAL 170935Z AUTO 20007KT 1 1/2SM BR OVC003 21/20 A2985 RMK AO2 PNO
KLAL 170915Z AUTO 20006KT 3/4SM BR OVC003 21/20 A2985 RMK AO2 LTG DSNT NW PNO
KLAL 170855Z AUTO 20006KT 1SM BR OVC003 21/20 A2985 RMK AO2 LTG DSNT N PNO
KLAL 170835Z AUTO 20003KT 7SM BKN007 20/18 A2985 RMK AO2 LTG DSNT N PNO
KLAL 170815Z AUTO 20003KT 10SM CLR 20/18 A2985 RMK AO2 LTG DSNT NW PNO